Meadowbrook, Alabama
Current Conditions -  °F | °C
As of 10:53 AM on Tuesday 27 Jan 2015 (Local Time) from KBHM Reporting Station
Scattered Clouds Scattered Clouds  
Wind Chill: 52°   Ceiling: Unl
Heat Index: 52°   Visibility: 10mi
Dew Point: 33°   Wind: 15mph
Humidity: 49%   Direction: 340°NNW
Pressure: 30.06"   Gusts: NA
Location:  33.3752°N, 86.7086°W
Report Text: KBHM 271653Z 34013KT 10SM FEW046 SCT120 11/01 A3006 RMK AO2 SLP178 T01110006
Loading
Personal Weather Stations






























Interactive Weather Map New forecast layout! Learn more

10-Day Weather Forecast

Advertisements
Track Severe Weather on mobile